Auburndale, Wisconsin
Current Conditions -  °F | °C
As of 6:54 AM on Sunday 21 Dec 2014 (Local Time) from KMFI Reporting Station
Haze Haze  
Wind Chill: 21°   Ceiling: 400
Heat Index: 30°   Visibility: 3mi
Dew Point: 27°   Wind: 12mph
Humidity: 88%   Direction: 160°SSE
Pressure: 30.04"   Gusts: NA
Location:  44.63°N, 90.01°W
Report Text: KMFI 211254Z AUTO 16010KT 3SM BR OVC004 M01/M03 A3004 RMK AO2 SLP188 T10111028
Loading
Personal Weather Stations






























Interactive Weather Map New forecast layout! Learn more

10-Day Weather Forecast

Advertisements
Track Severe Weather on mobile